Time;durP1;ratioP1;P1;durP2;ratioP2;P2;SDS_P1;SDS_P2;PMS_P1;PMS_P2;Temp;Humidity;BMP_temperature;BMP_pressure;BME280_temperature;BME280_humidity;BME280_pressure;Samples;Min_cycle;Max_cycle;Signal;HPM_P1;HPM_P2
2022/07/14 00:00:40;;;;;;;0.00;0.00;;;;;;;;;;4979408;28;20085;-93
2022/07/14 00:03:08;;;;;;;0.00;0.00;;;;;;;;;;5132837;23;20096;-96
2022/07/14 00:05:35;;;;;;;0.00;0.00;;;;;;;;;;5031741;28;20049;-94
2022/07/14 00:08:49;;;;;;;;;;;;;;;;;;;;;
2022/07/14 00:11:16;;;;;;;0.00;0.00;;;;;;;;;;5053039;28;20056;-93
2022/07/14 00:13:42;;;;;;;0.00;0.00;;;;;;;;;;5037009;28;20044;-92
2022/07/14 00:16:18;;;;;;;0.00;0.00;;;;;;;;;;5040444;28;20037;-92
2022/07/14 00:21:34;;;;;;;0.20;0.00;;;;;;;;;;5059676;28;20381;-93
2022/07/14 00:24:12;;;;;;;0.00;0.00;;;;;;;;;;5044411;28;20480;-94
2022/07/14 00:26:42;;;;;;;0.00;0.00;;;;;;;;;;5024489;28;20060;-95
2022/07/14 00:29:08;;;;;;;0.00;0.00;;;;;;;;;;5024897;28;20112;-94
2022/07/14 00:31:35;;;;;;;0.00;0.00;;;;;;;;;;5020365;28;20041;-94
2022/07/14 00:34:01;;;;;;;0.00;0.00;;;;;;;;;;5020312;28;20099;-93
2022/07/14 00:36:27;;;;;;;0.00;0.00;;;;;;;;;;5020423;28;20113;-94
2022/07/14 00:38:54;;;;;;;0.00;0.00;;;;;;;;;;5020255;28;20033;-95
2022/07/14 00:41:20;;;;;;;0.00;0.00;;;;;;;;;;5037818;28;20047;-94
2022/07/14 00:43:46;;;;;;;0.00;0.00;;;;;;;;;;5020185;28;20047;-94
2022/07/14 00:46:12;;;;;;;0.00;0.00;;;;;;;;;;5022547;28;20136;-95
2022/07/14 00:48:48;;;;;;;;;;;;;;;;;;;;;
2022/07/14 00:51:15;;;;;;;0.00;0.00;;;;;;;;;;5036628;28;20484;-94
2022/07/14 00:53:50;;;;;;;0.00;0.00;;;;;;;;;;5317713;22;20058;-94
2022/07/14 00:56:16;;;;;;;0.00;0.00;;;;;;;;;;5013671;28;20414;-94
2022/07/14 00:58:42;;;;;;;0.00;0.00;;;;;;;;;;4999188;28;20554;-95
2022/07/14 01:01:08;;;;;;;0.00;0.00;;;;;;;;;;4998459;28;20077;-93
2022/07/14 01:03:34;;;;;;;0.00;0.00;;;;;;;;;;5014590;28;20033;-93
2022/07/14 01:06:01;;;;;;;0.00;0.00;;;;;;;;;;4996865;28;20037;-92
2022/07/14 01:08:27;;;;;;;0.00;0.00;;;;;;;;;;4996574;28;20496;-94
2022/07/14 01:10:53;;;;;;;0.00;0.00;;;;;;;;;;4996427;28;20040;-94
2022/07/14 01:13:19;;;;;;;0.00;0.00;;;;;;;;;;5015771;28;20042;-94
2022/07/14 01:15:47;;;;;;;0.00;0.00;;;;;;;;;;4999893;28;20046;-94
2022/07/14 01:18:16;;;;;;;0.00;0.00;;;;;;;;;;5003076;28;20045;-94
2022/07/14 01:20:42;;;;;;;0.00;0.00;;;;;;;;;;5021620;28;20049;-94
2022/07/14 01:23:11;;;;;;;0.00;0.00;;;;;;;;;;5004936;28;20038;-93
2022/07/14 01:25:39;;;;;;;0.00;0.00;;;;;;;;;;5016906;28;20485;-94
2022/07/14 01:28:08;;;;;;;0.00;0.00;;;;;;;;;;5018027;28;20070;-95
2022/07/14 01:30:34;;;;;;;0.00;0.00;;;;;;;;;;5018901;28;20099;-94
2022/07/14 01:33:03;;;;;;;0.00;0.00;;;;;;;;;;5011536;28;20098;-94
2022/07/14 01:36:02;;;;;;;0.00;0.00;;;;;;;;;;5029150;28;20042;-93
2022/07/14 01:38:46;;;;;;;0.00;0.00;;;;;;;;;;5034404;28;20056;-93
2022/07/14 01:41:12;;;;;;;0.00;0.00;;;;;;;;;;5000264;28;20041;-95
2022/07/14 01:43:38;;;;;;;0.00;0.00;;;;;;;;;;5000774;28;20096;-95
2022/07/14 01:46:04;;;;;;;0.00;0.00;;;;;;;;;;5001419;28;20042;-96
2022/07/14 01:48:33;;;;;;;0.00;0.00;;;;;;;;;;5003358;28;20056;-94
2022/07/14 01:50:59;;;;;;;0.00;0.00;;;;;;;;;;5002391;28;20046;-94
2022/07/14 01:53:26;;;;;;;0.00;0.00;;;;;;;;;;5022562;28;20452;-94
2022/07/14 01:55:52;;;;;;;0.00;0.00;;;;;;;;;;5022443;28;20132;-93
2022/07/14 01:58:18;;;;;;;0.00;0.00;;;;;;;;;;5032595;28;20212;-93
2022/07/14 02:01:38;;;;;;;0.00;0.00;;;;;;;;;;5015766;28;20048;-94
2022/07/14 02:03:30;;;;;;;;;;;;;;;;;;5021094;28;20045;-93
2022/07/14 02:05:56;;;;;;;0.00;0.00;;;;;;;;;;5020563;28;20011;-94
2022/07/14 02:08:22;;;;;;;0.00;0.00;;;;;;;;;;5010462;28;20045;-95
2022/07/14 02:13:33;;;;;;;0.00;0.00;;;;;;;;;;5019103;28;20087;-94
2022/07/14 02:15:59;;;;;;;0.00;0.00;;;;;;;;;;5004062;28;20049;-95
2022/07/14 02:18:28;;;;;;;0.00;0.00;;;;;;;;;;5004650;28;20064;-94
2022/07/14 02:20:57;;;;;;;0.00;0.00;;;;;;;;;;5006803;28;20037;-94
2022/07/14 02:23:23;;;;;;;0.00;0.00;;;;;;;;;;5020590;28;20076;-95
2022/07/14 02:25:49;;;;;;;0.00;0.00;;;;;;;;;;5003056;28;20103;-94
2022/07/14 02:28:16;;;;;;;0.00;0.00;;;;;;;;;;5002512;28;20041;-95
2022/07/14 02:30:42;;;;;;;0.00;0.00;;;;;;;;;;5019389;28;20091;-95
2022/07/14 02:33:09;;;;;;;0.00;0.00;;;;;;;;;;5005671;28;20098;-94
2022/07/14 02:35:36;;;;;;;0.00;0.00;;;;;;;;;;5008190;28;20108;-95
2022/07/14 02:38:02;;;;;;;0.00;0.00;;;;;;;;;;5025517;28;20081;-95
2022/07/14 02:40:28;;;;;;;0.00;0.00;;;;;;;;;;5022172;28;20090;-94
2022/07/14 02:42:54;;;;;;;0.00;0.00;;;;;;;;;;5003177;28;20037;-94
2022/07/14 02:45:20;;;;;;;0.00;0.00;;;;;;;;;;5019118;28;20484;-94
2022/07/14 02:47:46;;;;;;;0.00;0.00;;;;;;;;;;5002571;28;20067;-94
2022/07/14 02:50:18;;;;;;;0.00;0.00;;;;;;;;;;5025473;28;20048;-94
2022/07/14 02:52:47;;;;;;;0.00;0.00;;;;;;;;;;5044492;28;20099;-93
2022/07/14 02:55:13;;;;;;;0.00;0.00;;;;;;;;;;5004463;28;20055;-91
2022/07/14 02:57:39;;;;;;;0.00;0.00;;;;;;;;;;5018008;28;20132;-94
2022/07/14 03:00:06;;;;;;;0.00;0.00;;;;;;;;;;5004081;28;20216;-93
2022/07/14 03:02:32;;;;;;;0.00;0.00;;;;;;;;;;5018618;28;20033;-95
2022/07/14 03:04:58;;;;;;;0.00;0.00;;;;;;;;;;5019759;28;20064;-94
2022/07/14 03:07:24;;;;;;;0.00;0.00;;;;;;;;;;5004968;28;20089;-95
2022/07/14 03:09:50;;;;;;;0.00;0.00;;;;;;;;;;5023336;28;20083;-94
2022/07/14 03:12:18;;;;;;;0.00;0.00;;;;;;;;;;5007265;28;20519;-93
2022/07/14 03:14:46;;;;;;;0.00;0.00;;;;;;;;;;5010325;28;20042;-96
2022/07/14 03:17:14;;;;;;;0.00;0.00;;;;;;;;;;5020331;28;20444;-95
2022/07/14 03:19:43;;;;;;;0.00;0.00;;;;;;;;;;5003422;28;20049;-94
2022/07/14 03:22:11;;;;;;;0.00;0.00;;;;;;;;;;5005619;28;20405;-95
2022/07/14 03:24:46;;;;;;;0.00;0.00;;;;;;;;;;5016433;28;20073;-96
2022/07/14 03:27:21;;;;;;;0.00;0.00;;;;;;;;;;5019911;28;20096;-92
2022/07/14 03:29:49;;;;;;;0.00;0.00;;;;;;;;;;5052852;23;20041;-93
2022/07/14 03:32:15;;;;;;;0.00;0.00;;;;;;;;;;5145130;22;20144;-94
2022/07/14 03:34:43;;;;;;;0.00;0.00;;;;;;;;;;5019153;28;20202;-96
2022/07/14 03:37:09;;;;;;;0.00;0.00;;;;;;;;;;5002911;28;20045;-95
2022/07/14 03:39:36;;;;;;;0.00;0.00;;;;;;;;;;5002986;28;20046;-93
2022/07/14 03:42:02;;;;;;;0.00;0.00;;;;;;;;;;5018491;28;20132;-94
2022/07/14 03:44:31;;;;;;;0.00;0.00;;;;;;;;;;5002428;28;20038;-93
2022/07/14 03:46:57;;;;;;;0.00;0.00;;;;;;;;;;5018031;28;20038;-93
2022/07/14 03:49:23;;;;;;;0.00;0.00;;;;;;;;;;5020047;28;20038;-95
2022/07/14 03:51:50;;;;;;;0.00;0.00;;;;;;;;;;5003627;28;20076;-95
2022/07/14 03:54:16;;;;;;;0.00;0.00;;;;;;;;;;5019724;28;20222;-94
2022/07/14 03:56:42;;;;;;;0.00;0.00;;;;;;;;;;5005137;28;20080;-93
2022/07/14 03:59:11;;;;;;;0.00;0.00;;;;;;;;;;5025471;28;20037;-95
2022/07/14 04:01:39;;;;;;;0.00;0.00;;;;;;;;;;5013046;28;20417;-95
2022/07/14 04:04:05;;;;;;;0.00;0.00;;;;;;;;;;5006790;28;20037;-95
2022/07/14 04:09:20;;;;;;;0.00;0.00;;;;;;;;;;5108253;23;20053;-93
2022/07/14 04:11:46;;;;;;;0.00;0.00;;;;;;;;;;5039733;28;20087;-95
2022/07/14 04:14:12;;;;;;;0.00;0.00;;;;;;;;;;5037819;28;20045;-94
2022/07/14 04:16:44;;;;;;;0.00;0.00;;;;;;;;;;5044991;28;20434;-95
2022/07/14 04:19:13;;;;;;;0.00;0.00;;;;;;;;;;5027053;28;20048;-94
2022/07/14 04:21:40;;;;;;;0.00;0.00;;;;;;;;;;5039634;28;20399;-96
2022/07/14 04:24:06;;;;;;;0.00;0.00;;;;;;;;;;5021720;28;20499;-93
2022/07/14 04:26:32;;;;;;;0.00;0.00;;;;;;;;;;5020560;28;20033;-92
2022/07/14 04:28:58;;;;;;;0.00;0.00;;;;;;;;;;5019952;28;20077;-94
2022/07/14 04:34:31;;;;;;;0.00;0.00;;;;;;;;;;5062512;28;20044;-94
2022/07/14 04:36:59;;;;;;;0.00;0.00;;;;;;;;;;5046522;28;20094;-95
2022/07/14 04:39:25;;;;;;;0.00;0.00;;;;;;;;;;5049993;28;20040;-95
2022/07/14 04:41:51;;;;;;;0.00;0.00;;;;;;;;;;5043702;28;20051;-96
2022/07/14 04:44:18;;;;;;;0.00;0.00;;;;;;;;;;5027146;28;20041;-95
2022/07/14 04:46:44;;;;;;;0.00;0.00;;;;;;;;;;5022143;28;20037;-93
2022/07/14 04:52:06;;;;;;;0.00;0.00;;;;;;;;;;5038805;28;20049;-90
2022/07/14 04:54:33;;;;;;;0.00;0.00;;;;;;;;;;5031196;28;20530;-95
2022/07/14 04:57:01;;;;;;;0.00;0.00;;;;;;;;;;5035545;28;20116;-93
2022/07/14 04:59:28;;;;;;;0.00;0.00;;;;;;;;;;5018830;28;20053;-93
2022/07/14 05:01:54;;;;;;;0.00;0.00;;;;;;;;;;5019057;28;20124;-94
2022/07/14 05:04:20;;;;;;;0.00;0.00;;;;;;;;;;5035361;28;20037;-93
2022/07/14 05:06:50;;;;;;;0.00;0.00;;;;;;;;;;5035536;28;20037;-93
2022/07/14 05:09:19;;;;;;;0.00;0.00;;;;;;;;;;5022073;28;20144;-95
2022/07/14 05:11:45;;;;;;;0.00;0.00;;;;;;;;;;5022960;28;20511;-93
2022/07/14 05:14:14;;;;;;;0.00;0.00;;;;;;;;;;5023399;28;20052;-93
2022/07/14 05:16:41;;;;;;;0.00;0.00;;;;;;;;;;5023044;28;20052;-93
2022/07/14 05:19:08;;;;;;;0.00;0.00;;;;;;;;;;5039486;28;20037;-93
2022/07/14 05:21:34;;;;;;;0.00;0.00;;;;;;;;;;5022973;28;20123;-93
2022/07/14 05:24:00;;;;;;;0.00;0.00;;;;;;;;;;5022868;28;20115;-93
2022/07/14 05:26:26;;;;;;;0.00;0.00;;;;;;;;;;5039442;28;20395;-94
2022/07/14 05:28:52;;;;;;;0.00;0.00;;;;;;;;;;5022511;28;20492;-93
2022/07/14 05:31:18;;;;;;;0.00;0.00;;;;;;;;;;5039266;28;20052;-94
2022/07/14 05:33:45;;;;;;;0.00;0.00;;;;;;;;;;5022727;28;20083;-94
2022/07/14 05:36:11;;;;;;;0.00;0.00;;;;;;;;;;5023402;28;20047;-93
2022/07/14 05:38:37;;;;;;;0.00;0.00;;;;;;;;;;5039501;28;20484;-95
2022/07/14 05:41:03;;;;;;;0.00;0.00;;;;;;;;;;5022753;28;20041;-93
2022/07/14 05:43:31;;;;;;;0.00;0.00;;;;;;;;;;5039375;28;20447;-92
2022/07/14 05:46:03;;;;;;;0.00;0.00;;;;;;;;;;5022566;28;20056;-92
2022/07/14 05:48:28;;;;;;;0.45;0.25;;;;;;;;;;5022156;28;20044;-92
2022/07/14 05:50:54;;;;;;;0.00;0.00;;;;;;;;;;5038904;28;20041;-90
2022/07/14 05:53:20;;;;;;;0.00;0.00;;;;;;;;;;5021665;28;20480;-91
2022/07/14 05:55:47;;;;;;;0.00;0.00;;;;;;;;;;5022618;28;20479;-90
2022/07/14 05:58:13;;;;;;;0.00;0.00;;;;;;;;;;5021780;28;20422;-90
2022/07/14 06:00:39;;;;;;;0.00;0.00;;;;;;;;;;5037813;28;20041;-92
2022/07/14 06:03:05;;;;;;;0.00;0.00;;;;;;;;;;5021199;28;20120;-93
2022/07/14 06:05:33;;;;;;;0.00;0.00;;;;;;;;;;5037803;28;20044;-91
2022/07/14 06:07:59;;;;;;;0.00;0.00;;;;;;;;;;5037419;28;20060;-94
2022/07/14 06:10:25;;;;;;;0.00;0.00;;;;;;;;;;5037345;28;20049;-92
2022/07/14 06:12:51;;;;;;;0.00;0.00;;;;;;;;;;5037053;28;20075;-91
2022/07/14 06:15:17;;;;;;;0.00;0.00;;;;;;;;;;5021280;28;20066;-91
2022/07/14 06:17:43;;;;;;;0.00;0.00;;;;;;;;;;5037493;28;20091;-92
2022/07/14 06:20:10;;;;;;;0.00;0.00;;;;;;;;;;5037256;28;20045;-92
2022/07/14 06:22:37;;;;;;;0.00;0.00;;;;;;;;;;5036972;28;20052;-91
2022/07/14 06:25:03;;;;;;;0.00;0.00;;;;;;;;;;5021149;28;20037;-91
2022/07/14 06:27:29;;;;;;;0.00;0.00;;;;;;;;;;5020873;28;20033;-91
2022/07/14 06:29:55;;;;;;;0.00;0.00;;;;;;;;;;5020928;28;20585;-93
2022/07/14 06:32:23;;;;;;;0.00;0.00;;;;;;;;;;5021012;28;20045;-91
2022/07/14 06:34:49;;;;;;;0.00;0.00;;;;;;;;;;5020967;28;20128;-91
2022/07/14 06:39:51;;;;;;;0.00;0.00;;;;;;;;;;5016306;28;20061;-92
2022/07/14 06:42:18;;;;;;;0.00;0.00;;;;;;;;;;5031228;28;20041;-91
2022/07/14 06:44:43;;;;;;;0.00;0.00;;;;;;;;;;5005872;28;20100;-92
2022/07/14 06:47:09;;;;;;;0.00;0.00;;;;;;;;;;5017056;28;20065;-91
2022/07/14 06:49:35;;;;;;;0.00;0.00;;;;;;;;;;5016460;28;20045;-91
2022/07/14 06:52:01;;;;;;;0.00;0.00;;;;;;;;;;5001396;28;20041;-90
2022/07/14 06:54:27;;;;;;;0.00;0.00;;;;;;;;;;5016865;28;20156;-91
2022/07/14 06:56:53;;;;;;;0.00;0.00;;;;;;;;;;5023436;28;20396;-93
2022/07/14 06:59:19;;;;;;;0.00;0.00;;;;;;;;;;5024113;28;20037;-93
2022/07/14 07:01:45;;;;;;;0.00;0.00;;;;;;;;;;5027584;28;20038;-92
2022/07/14 07:04:11;;;;;;;0.00;0.00;;;;;;;;;;5019177;28;20073;-92
2022/07/14 07:06:45;;;;;;;0.00;0.00;;;;;;;;;;5019876;28;20073;-93
2022/07/14 07:09:12;;;;;;;0.00;0.00;;;;;;;;;;5032220;28;20045;-91
2022/07/14 07:11:38;;;;;;;0.00;0.00;;;;;;;;;;5032840;28;20045;-91
2022/07/14 07:14:04;;;;;;;0.00;0.00;;;;;;;;;;5026832;28;20060;-92
2022/07/14 07:16:30;;;;;;;0.00;0.00;;;;;;;;;;5033075;28;20076;-92
2022/07/14 07:18:56;;;;;;;0.00;0.00;;;;;;;;;;5032473;28;20045;-92
2022/07/14 07:21:28;;;;;;;0.00;0.00;;;;;;;;;;5027148;28;20037;-94
2022/07/14 07:23:54;;;;;;;0.00;0.00;;;;;;;;;;5019114;28;20371;-93
2022/07/14 07:26:24;;;;;;;0.00;0.00;;;;;;;;;;5029508;28;20488;-93
2022/07/14 07:28:50;;;;;;;0.00;0.00;;;;;;;;;;5018617;28;20045;-95
2022/07/14 07:31:17;;;;;;;0.00;0.00;;;;;;;;;;5036188;28;20049;-94
2022/07/14 07:33:43;;;;;;;0.00;0.00;;;;;;;;;;5021535;28;20043;-95
2022/07/14 07:36:09;;;;;;;0.00;0.00;;;;;;;;;;5022242;28;20477;-94
2022/07/14 07:38:41;;;;;;;0.00;0.00;;;;;;;;;;5033765;28;20514;-94
2022/07/14 07:41:07;;;;;;;0.00;0.00;;;;;;;;;;5020237;28;20546;-93
2022/07/14 07:43:34;;;;;;;0.00;0.00;;;;;;;;;;5033722;28;20390;-94
2022/07/14 07:46:03;;;;;;;0.00;0.00;;;;;;;;;;5017751;28;20038;-94
2022/07/14 07:48:38;;;;;;;0.00;0.00;;;;;;;;;;5034306;28;20048;-94
2022/07/14 07:51:04;;;;;;;0.00;0.00;;;;;;;;;;5034145;28;20480;-94
2022/07/14 07:53:30;;;;;;;0.00;0.00;;;;;;;;;;5017968;28;20067;-94
2022/07/14 07:55:56;;;;;;;0.00;0.00;;;;;;;;;;5017581;28;20069;-95
2022/07/14 07:58:22;;;;;;;0.00;0.00;;;;;;;;;;5033826;28;20041;-94
2022/07/14 08:00:48;;;;;;;0.00;0.00;;;;;;;;;;5016553;28;20477;-95
2022/07/14 08:03:31;;;;;;;0.00;0.00;;;;;;;;;;5036016;28;20132;-93
2022/07/14 08:06:02;;;;;;;0.00;0.00;;;;;;;;;;5024605;28;20042;-94
2022/07/14 08:08:28;;;;;;;0.00;0.00;;;;;;;;;;5034049;28;20057;-95
2022/07/14 08:10:57;;;;;;;0.00;0.00;;;;;;;;;;5019564;28;20516;-95
2022/07/14 08:13:23;;;;;;;0.00;0.00;;;;;;;;;;5019021;28;20051;-94
2022/07/14 08:15:49;;;;;;;0.00;0.00;;;;;;;;;;5017372;28;20037;-95
2022/07/14 08:18:16;;;;;;;0.00;0.00;;;;;;;;;;5030582;28;20200;-94
2022/07/14 08:20:42;;;;;;;0.00;0.00;;;;;;;;;;5032853;28;20041;-94
2022/07/14 09:03:01;;;;;;;0.00;0.00;;;;;;;;;;5378142;23;20073;-92
2022/07/14 09:05:27;;;;;;;0.00;0.00;;;;;;;;;;4999672;28;20055;-91
2022/07/14 09:07:57;;;;;;;0.00;0.00;;;;;;;;;;5016207;28;20046;-92
2022/07/14 09:10:24;;;;;;;0.00;0.00;;;;;;;;;;4999358;28;20038;-93
2022/07/14 09:12:50;;;;;;;0.00;0.00;;;;;;;;;;4999777;28;20049;-92
2022/07/14 09:18:04;;;;;;;0.00;0.00;;;;;;;;;;5016082;28;20515;-91
2022/07/14 09:20:31;;;;;;;0.00;0.00;;;;;;;;;;5001041;28;20318;-92
2022/07/14 09:23:00;;;;;;;0.00;0.00;;;;;;;;;;5002187;28;20103;-92
2022/07/14 09:25:47;;;;;;;0.00;0.00;;;;;;;;;;4999601;28;20107;-92
2022/07/14 09:28:13;;;;;;;0.00;0.00;;;;;;;;;;5016674;28;20049;-92
2022/07/14 09:30:39;;;;;;;0.00;0.00;;;;;;;;;;4999441;28;20485;-94
2022/07/14 09:33:05;;;;;;;0.00;0.00;;;;;;;;;;4999456;28;20044;-91
2022/07/14 09:35:35;;;;;;;0.00;0.00;;;;;;;;;;4999665;28;20041;-92
2022/07/14 09:38:15;;;;;;;0.00;0.00;;;;;;;;;;4999427;28;20033;-91
2022/07/14 09:40:42;;;;;;;0.00;0.00;;;;;;;;;;5015427;28;20496;-92
2022/07/14 09:43:12;;;;;;;0.00;0.00;;;;;;;;;;5015933;28;20076;-91
2022/07/14 09:45:39;;;;;;;0.00;0.00;;;;;;;;;;4999366;28;20044;-91
2022/07/14 09:48:08;;;;;;;0.00;0.00;;;;;;;;;;5015079;28;20088;-90
2022/07/14 09:50:49;;;;;;;0.00;0.00;;;;;;;;;;5015152;28;20035;-90
2022/07/14 09:53:28;;;;;;;0.00;0.00;;;;;;;;;;5016109;28;20037;-91
2022/07/14 09:56:01;;;;;;;0.00;0.00;;;;;;;;;;5021385;28;20037;-92
2022/07/14 09:58:44;;;;;;;0.00;0.00;;;;;;;;;;5021113;28;20084;-92
2022/07/14 10:01:14;;;;;;;0.00;0.00;;;;;;;;;;5004742;28;20139;-92
2022/07/14 10:03:45;;;;;;;0.00;0.00;;;;;;;;;;5020683;28;20055;-92
2022/07/14 10:06:31;;;;;;;0.00;0.00;;;;;;;;;;5004979;28;20121;-93
2022/07/14 10:08:59;;;;;;;0.00;0.00;;;;;;;;;;5021060;28;20045;-89
2022/07/14 10:11:31;;;;;;;0.00;0.00;;;;;;;;;;5002489;28;20428;-91
2022/07/14 10:14:00;;;;;;;0.00;0.00;;;;;;;;;;5019994;28;20481;-93
2022/07/14 10:16:59;;;;;;;0.00;0.00;;;;;;;;;;5004895;28;20053;-92
2022/07/14 10:19:36;;;;;;;0.00;0.00;;;;;;;;;;5026800;28;20056;-87
2022/07/14 10:22:06;;;;;;;0.00;0.00;;;;;;;;;;5024613;28;20045;-94
2022/07/14 10:24:47;;;;;;;0.00;0.00;;;;;;;;;;5027957;28;20033;-94
2022/07/14 10:27:52;;;;;;;0.00;0.00;;;;;;;;;;5040380;28;20352;-94
2022/07/14 10:30:50;;;;;;;0.00;0.00;;;;;;;;;;5012508;28;20123;-94
2022/07/14 10:33:27;;;;;;;0.00;0.00;;;;;;;;;;5036778;28;20050;-94
2022/07/14 10:35:57;;;;;;;0.00;0.00;;;;;;;;;;5015787;28;20136;-94
2022/07/14 10:38:32;;;;;;;0.00;0.00;;;;;;;;;;5009555;28;20049;-93
2022/07/14 10:41:18;;;;;;;0.00;0.00;;;;;;;;;;5035110;23;20053;-93
2022/07/14 10:44:06;;;;;;;0.00;0.00;;;;;;;;;;5004572;28;20052;-92
2022/07/14 10:50:10;;;;;;;0.00;0.00;;;;;;;;;;4998433;28;20052;-93
2022/07/14 11:14:58;;;;;;;0.00;0.00;;;;;;;;;;5877839;22;20061;-95
2022/07/14 11:23:17;;;;;;;0.00;0.00;;;;;;;;;;4979663;28;20062;-93
2022/07/14 11:28:39;;;;;;;0.00;0.00;;;;;;;;;;5224471;22;20104;-91
2022/07/14 11:31:23;;;;;;;;;;;;;;;;;;;;;
2022/07/14 11:37:21;;;;;;;0.00;0.00;;;;;;;;;;4999796;28;20069;-93
2022/07/14 11:42:23;;;;;;;0.00;0.00;;;;;;;;;;5056843;23;20060;-92
2022/07/14 11:44:58;;;;;;;0.00;0.00;;;;;;;;;;5019875;28;20072;-93
2022/07/14 11:47:29;;;;;;;0.00;0.00;;;;;;;;;;5018291;28;20046;-92
2022/07/14 11:49:57;;;;;;;0.00;0.00;;;;;;;;;;5018290;28;20049;-92
2022/07/14 11:52:29;;;;;;;0.00;0.00;;;;;;;;;;5001325;28;20484;-91
2022/07/14 11:54:56;;;;;;;0.00;0.00;;;;;;;;;;5017166;28;20033;-91
2022/07/14 11:57:25;;;;;;;0.00;0.00;;;;;;;;;;5000542;28;20041;-91
2022/07/14 11:59:51;;;;;;;0.00;0.00;;;;;;;;;;5016918;28;20056;-91
2022/07/14 12:02:18;;;;;;;0.00;0.00;;;;;;;;;;5000391;28;20048;-91
2022/07/14 12:04:52;;;;;;;0.00;0.00;;;;;;;;;;5000999;28;20037;-93
2022/07/14 12:07:19;;;;;;;0.00;0.00;;;;;;;;;;5000221;28;20096;-90
2022/07/14 12:09:52;;;;;;;0.00;0.00;;;;;;;;;;5016832;28;20053;-90
2022/07/14 12:12:18;;;;;;;0.00;0.00;;;;;;;;;;5016496;28;20129;-92
2022/07/14 12:14:49;;;;;;;0.00;0.00;;;;;;;;;;4999781;28;20566;-90
2022/07/14 12:17:16;;;;;;;0.00;0.00;;;;;;;;;;5016248;28;20468;-91
2022/07/14 12:19:42;;;;;;;0.00;0.00;;;;;;;;;;5016203;28;20132;-92
2022/07/14 12:22:08;;;;;;;0.00;0.00;;;;;;;;;;5000310;28;20085;-90
2022/07/14 12:24:35;;;;;;;0.00;0.00;;;;;;;;;;4999925;28;20052;-91
2022/07/14 12:27:05;;;;;;;0.00;0.00;;;;;;;;;;4999962;28;20045;-90
2022/07/14 12:29:33;;;;;;;0.00;0.00;;;;;;;;;;5051188;22;20171;-91
2022/07/14 14:48:55;;;;;;;0.00;0.00;;;;;;;;;;5307819;22;20049;-94
2022/07/14 15:04:56;;;;;;;0.00;0.00;;;;;;;;;;5048114;22;20123;-94
2022/07/14 15:07:22;;;;;;;0.00;0.00;;;;;;;;;;5042307;28;20052;-94
2022/07/14 15:09:58;;;;;;;0.00;0.00;;;;;;;;;;5037938;28;20552;-92
2022/07/14 15:12:24;;;;;;;0.00;0.00;;;;;;;;;;5034400;28;20045;-94
2022/07/14 15:14:51;;;;;;;0.00;0.00;;;;;;;;;;5033447;28;20128;-95
2022/07/14 15:17:17;;;;;;;0.00;0.00;;;;;;;;;;5036708;28;20074;-94
2022/07/14 15:19:47;;;;;;;0.00;0.00;;;;;;;;;;5034375;28;20042;-94
2022/07/14 15:22:16;;;;;;;0.00;0.00;;;;;;;;;;5025927;28;20048;-93
2022/07/14 15:24:45;;;;;;;0.00;0.00;;;;;;;;;;5041513;28;20145;-94
2022/07/14 15:27:14;;;;;;;0.00;0.00;;;;;;;;;;5023704;28;20080;-94
2022/07/14 15:29:43;;;;;;;0.00;0.00;;;;;;;;;;5037123;28;20041;-95
2022/07/14 15:32:13;;;;;;;0.00;0.00;;;;;;;;;;5043303;28;20503;-93
2022/07/14 15:34:39;;;;;;;0.10;0.00;;;;;;;;;;5042233;28;20055;-93
2022/07/14 15:37:05;;;;;;;0.00;0.00;;;;;;;;;;5038136;28;20041;-93
2022/07/14 15:42:32;;;;;;;0.00;0.00;;;;;;;;;;5028160;28;20065;-94
2022/07/14 15:44:58;;;;;;;0.00;0.00;;;;;;;;;;5031725;23;20057;-93
2022/07/14 15:47:24;;;;;;;0.00;0.00;;;;;;;;;;5001770;28;20100;-94
2022/07/14 15:49:53;;;;;;;0.00;0.00;;;;;;;;;;5020060;28;20037;-93
2022/07/14 15:52:25;;;;;;;0.00;0.00;;;;;;;;;;5003815;28;20128;-93
2022/07/14 15:55:13;;;;;;;0.00;0.00;;;;;;;;;;5027503;28;20033;-94
2022/07/14 15:57:39;;;;;;;0.00;0.00;;;;;;;;;;5017056;28;20050;-95
2022/07/14 16:00:09;;;;;;;0.00;0.00;;;;;;;;;;5004689;28;20565;-94
2022/07/14 16:02:38;;;;;;;0.00;0.00;;;;;;;;;;5020719;28;20095;-93
2022/07/14 16:05:05;;;;;;;0.00;0.00;;;;;;;;;;5008205;28;20068;-95
2022/07/14 16:07:37;;;;;;;0.00;0.00;;;;;;;;;;5030113;28;20030;-94
2022/07/14 16:13:34;;;;;;;0.00;0.00;;;;;;;;;;5094104;23;20048;-94
2022/07/14 16:18:48;;;;;;;0.00;0.00;;;;;;;;;;5009805;28;19925;-96
2022/07/14 16:21:17;;;;;;;0.00;0.00;;;;;;;;;;5001034;28;20047;-95
2022/07/14 16:23:43;;;;;;;0.00;0.00;;;;;;;;;;5015420;28;20037;-92
2022/07/14 16:26:10;;;;;;;0.00;0.00;;;;;;;;;;5016195;28;20080;-93
2022/07/14 16:28:36;;;;;;;0.00;0.00;;;;;;;;;;4999822;28;20067;-92
2022/07/14 16:31:06;;;;;;;0.00;0.00;;;;;;;;;;4999938;28;20072;-91
2022/07/14 16:33:33;;;;;;;0.00;0.00;;;;;;;;;;4999591;28;20125;-94
2022/07/14 16:35:59;;;;;;;0.00;0.00;;;;;;;;;;5000201;28;20045;-93
2022/07/14 16:38:25;;;;;;;0.00;0.00;;;;;;;;;;5033109;28;20033;-92
2022/07/14 16:40:51;;;;;;;0.00;0.00;;;;;;;;;;5002697;28;20545;-92
2022/07/14 16:43:17;;;;;;;0.00;0.00;;;;;;;;;;5016256;28;20124;-93
2022/07/14 16:45:44;;;;;;;0.00;0.00;;;;;;;;;;5015772;28;20044;-92
2022/07/14 16:48:10;;;;;;;0.00;0.00;;;;;;;;;;5016216;28;20495;-93
2022/07/14 16:50:39;;;;;;;0.00;0.00;;;;;;;;;;5000198;28;20131;-93
2022/07/14 16:53:05;;;;;;;0.00;0.00;;;;;;;;;;5016284;28;20500;-93
2022/07/14 16:55:33;;;;;;;0.00;0.00;;;;;;;;;;5016041;28;20064;-94
2022/07/14 16:57:59;;;;;;;0.00;0.00;;;;;;;;;;5018233;28;20045;-92
2022/07/14 17:06:23;;;;;;;0.00;0.00;;;;;;;;;;5056565;28;20148;-95
2022/07/14 17:12:27;;;;;;;0.00;0.00;;;;;;;;;;4939063;28;20055;-94
2022/07/14 17:14:53;;;;;;;0.00;0.00;;;;;;;;;;5021977;28;20136;-86
2022/07/14 17:17:19;;;;;;;0.00;0.00;;;;;;;;;;5019004;28;20072;-87
2022/07/14 17:19:45;;;;;;;0.00;0.00;;;;;;;;;;5014663;28;20558;-87
2022/07/14 17:22:11;;;;;;;0.00;0.00;;;;;;;;;;5015073;28;20037;-88
2022/07/14 17:24:37;;;;;;;0.00;0.00;;;;;;;;;;5014939;28;20048;-86
2022/07/14 17:27:03;;;;;;;0.00;0.00;;;;;;;;;;5014847;28;20049;-86
2022/07/14 17:29:29;;;;;;;0.00;0.00;;;;;;;;;;5031010;28;20451;-87
2022/07/14 17:31:55;;;;;;;0.00;0.00;;;;;;;;;;5014689;28;20404;-87
2022/07/14 17:34:22;;;;;;;0.00;0.00;;;;;;;;;;5014628;28;20056;-86
2022/07/14 17:36:48;;;;;;;0.00;0.00;;;;;;;;;;5014914;28;20041;-87
2022/07/14 17:39:14;;;;;;;0.00;0.00;;;;;;;;;;5015077;28;20293;-88
2022/07/14 17:41:40;;;;;;;0.00;0.00;;;;;;;;;;5014532;28;20400;-87
2022/07/14 17:44:06;;;;;;;0.00;0.00;;;;;;;;;;5014623;28;20065;-87
2022/07/14 17:46:32;;;;;;;0.00;0.00;;;;;;;;;;5013623;28;20038;-87
2022/07/14 17:48:58;;;;;;;0.00;0.00;;;;;;;;;;5014878;28;20046;-91
2022/07/14 17:54:09;;;;;;;0.00;0.00;;;;;;;;;;5014559;28;20049;-88
2022/07/14 17:56:36;;;;;;;0.00;0.00;;;;;;;;;;5014364;28;20048;-88
2022/07/14 17:59:02;;;;;;;0.00;0.00;;;;;;;;;;5014704;28;20140;-87
2022/07/14 18:01:28;;;;;;;0.00;0.00;;;;;;;;;;5014654;28;20532;-87
2022/07/14 18:03:54;;;;;;;0.00;0.00;;;;;;;;;;5014408;28;20041;-87
2022/07/14 18:06:20;;;;;;;0.00;0.00;;;;;;;;;;4997494;28;20121;-88
2022/07/14 18:08:46;;;;;;;0.00;0.00;;;;;;;;;;4994835;28;20092;-88
2022/07/14 18:11:12;;;;;;;0.00;0.00;;;;;;;;;;4994471;28;20042;-87
2022/07/14 18:13:38;;;;;;;0.00;0.00;;;;;;;;;;4995041;28;20049;-87
2022/07/14 18:16:04;;;;;;;0.00;0.00;;;;;;;;;;4996804;28;20053;-87
2022/07/14 18:18:30;;;;;;;0.00;0.00;;;;;;;;;;4998278;28;20049;-87
2022/07/14 18:20:56;;;;;;;0.00;0.00;;;;;;;;;;4997940;28;20041;-87
2022/07/14 18:23:22;;;;;;;0.00;0.00;;;;;;;;;;4998284;28;20060;-87
2022/07/14 18:25:48;;;;;;;0.00;0.00;;;;;;;;;;4997874;28;20509;-87
2022/07/14 18:28:14;;;;;;;0.00;0.00;;;;;;;;;;4998224;28;20041;-88
2022/07/14 18:30:40;;;;;;;0.00;0.00;;;;;;;;;;4998046;28;20432;-87
2022/07/14 18:33:06;;;;;;;0.00;0.00;;;;;;;;;;4998017;28;20042;-88
2022/07/14 18:35:32;;;;;;;0.00;0.00;;;;;;;;;;4997752;28;20042;-87
2022/07/14 18:37:58;;;;;;;0.00;0.00;;;;;;;;;;4997642;28;20099;-87
2022/07/14 18:40:24;;;;;;;0.00;0.00;;;;;;;;;;4997554;28;20057;-87
2022/07/14 18:42:50;;;;;;;0.00;0.00;;;;;;;;;;4997856;28;20112;-86
2022/07/14 18:48:00;;;;;;;0.00;0.00;;;;;;;;;;4997745;28;20045;-86
2022/07/14 18:50:26;;;;;;;0.00;0.00;;;;;;;;;;4997732;28;20049;-84
2022/07/14 18:52:53;;;;;;;0.00;0.00;;;;;;;;;;4997746;28;20045;-86
2022/07/14 18:55:19;;;;;;;0.00;0.00;;;;;;;;;;4997605;28;20050;-83
2022/07/14 18:57:45;;;;;;;0.00;0.00;;;;;;;;;;5014242;28;20364;-83
2022/07/14 19:00:13;;;;;;;0.00;0.00;;;;;;;;;;4997297;28;20501;-83
2022/07/14 19:02:39;;;;;;;0.00;0.00;;;;;;;;;;4997769;28;20429;-83
2022/07/14 19:05:06;;;;;;;0.00;0.00;;;;;;;;;;4997503;28;20557;-84
2022/07/14 19:07:32;;;;;;;0.00;0.00;;;;;;;;;;4997196;28;20381;-84
2022/07/14 19:09:58;;;;;;;0.00;0.00;;;;;;;;;;4997666;28;20184;-84
2022/07/14 19:12:24;;;;;;;0.00;0.00;;;;;;;;;;4997356;28;20068;-84
2022/07/14 19:14:50;;;;;;;0.00;0.00;;;;;;;;;;4997399;28;20485;-84
2022/07/14 19:17:16;;;;;;;0.00;0.00;;;;;;;;;;4997317;28;20425;-83
2022/07/14 19:19:42;;;;;;;0.00;0.00;;;;;;;;;;4997167;28;20228;-84
2022/07/14 19:22:08;;;;;;;0.00;0.00;;;;;;;;;;4996912;28;20049;-84
2022/07/14 19:24:35;;;;;;;0.00;0.00;;;;;;;;;;4997614;28;20046;-83
2022/07/14 19:27:01;;;;;;;0.00;0.00;;;;;;;;;;4996107;28;20056;-83